createdAt,value
2022-11-09T00:01:29.356Z,4.45
2022-11-09T00:03:59.265Z,3.20
2022-11-09T00:06:30.205Z,3.97
2022-11-09T00:09:04.155Z,3.50
2022-11-09T00:11:35.594Z,4.47
2022-11-09T00:14:04.286Z,2.90
2022-11-09T00:16:32.744Z,4.78
2022-11-09T00:19:01.182Z,3.78
2022-11-09T00:21:31.021Z,2.78
2022-11-09T00:28:56.286Z,2.70
2022-11-09T00:31:25.719Z,2.83
2022-11-09T00:33:56.600Z,6.90
2022-11-09T00:36:27.785Z,10.20
2022-11-09T00:38:59.043Z,9.30
2022-11-09T00:41:28.111Z,6.60
2022-11-09T00:43:57.155Z,8.75
2022-11-09T00:46:25.956Z,9.50
2022-11-09T00:48:55.673Z,10.05
2022-11-09T00:51:24.534Z,10.35
2022-11-09T00:53:54.784Z,12.93
2022-11-09T00:56:25.523Z,42.35
2022-11-09T00:58:55.868Z,39.08
2022-11-09T01:01:24.645Z,12.23
2022-11-09T01:03:53.305Z,10.13
2022-11-09T01:06:23.378Z,8.13
2022-11-09T01:08:52.999Z,24.38
2022-11-09T01:11:23.270Z,16.98
2022-11-09T01:13:55.648Z,8.35
2022-11-09T01:16:25.184Z,3.15
2022-11-09T01:18:55.445Z,9.02
2022-11-09T01:21:26.909Z,14.75
2022-11-09T01:23:58.223Z,3.85
2022-11-09T01:26:29.702Z,9.77
2022-11-09T01:28:59.447Z,5.78
2022-11-09T01:33:56.550Z,12.25
2022-11-09T01:38:54.865Z,4.72
2022-11-09T01:41:25.487Z,10.50
2022-11-09T01:44:06.735Z,6.40
2022-11-09T01:46:39.851Z,29.17
2022-11-09T01:49:15.509Z,5.03
2022-11-09T01:51:48.596Z,6.32
2022-11-09T01:54:20.665Z,15.75
2022-11-09T01:56:54.806Z,9.77
2022-11-09T01:59:28.441Z,6.97
2022-11-09T02:01:57.673Z,3.83
2022-11-09T02:04:32.249Z,4.35
2022-11-09T02:07:01.204Z,10.43
2022-11-09T02:09:34.637Z,11.90
2022-11-09T02:12:03.096Z,8.18
2022-11-09T02:14:34.095Z,7.50
2022-11-09T02:17:02.725Z,6.50
2022-11-09T02:19:31.855Z,6.97
2022-11-09T02:22:02.246Z,6.68
2022-11-09T02:24:34.108Z,3.83
2022-11-09T02:27:02.710Z,8.75
2022-11-09T02:29:36.117Z,2.65
2022-11-09T02:32:09.540Z,5.68
2022-11-09T02:34:38.295Z,5.97
2022-11-09T02:37:08.363Z,2.35
2022-11-09T02:39:37.023Z,2.80
2022-11-09T02:42:10.452Z,2.95
2022-11-09T02:44:44.645Z,3.33
2022-11-09T02:47:13.191Z,2.53
2022-11-09T02:49:42.400Z,2.75
2022-11-09T02:52:12.252Z,2.40
2022-11-09T02:54:40.915Z,3.05
2022-11-09T02:57:09.992Z,7.15
2022-11-09T02:59:39.523Z,7.18
2022-11-09T03:02:08.595Z,9.85
2022-11-09T03:04:37.240Z,9.25
2022-11-09T03:07:06.401Z,8.50
2022-11-09T03:09:36.408Z,9.45
2022-11-09T03:12:25.437Z,8.73
2022-11-09T03:14:54.016Z,8.15
2022-11-09T03:17:22.977Z,10.80
2022-11-09T03:19:51.482Z,9.95
2022-11-09T03:22:19.972Z,9.57
2022-11-09T03:24:51.084Z,10.93
2022-11-09T03:27:20.074Z,9.90
2022-11-09T03:29:50.564Z,8.60
2022-11-09T03:32:19.211Z,9.55
2022-11-09T03:34:49.093Z,9.05
2022-11-09T03:37:17.620Z,8.57
2022-11-09T03:39:46.200Z,9.40
2022-11-09T03:42:15.994Z,10.60
2022-11-09T03:44:44.610Z,6.20
2022-11-09T03:47:13.135Z,7.53
2022-11-09T03:49:41.572Z,8.65
2022-11-09T03:52:10.079Z,5.32
2022-11-09T03:54:38.724Z,6.30
2022-11-09T03:57:07.156Z,6.47
2022-11-09T03:59:37.123Z,6.43
2022-11-09T04:04:34.036Z,5.47
2022-11-09T04:07:02.566Z,5.85
2022-11-09T04:09:31.124Z,4.55
2022-11-09T04:11:59.550Z,6.72
2022-11-09T04:14:27.957Z,5.30
2022-11-09T04:16:57.983Z,5.22
2022-11-09T04:19:26.430Z,5.65
2022-11-09T04:21:54.880Z,5.97
2022-11-09T04:24:23.364Z,4.15
2022-11-09T04:26:51.814Z,5.15
2022-11-09T04:29:20.272Z,7.20
2022-11-09T04:31:49.364Z,5.32
2022-11-09T04:34:19.899Z,5.32
2022-11-09T04:36:48.405Z,6.53
2022-11-09T04:39:17.305Z,6.75
2022-11-09T04:41:46.131Z,4.82
2022-11-09T04:44:14.646Z,5.05
2022-11-09T04:46:43.638Z,5.85
2022-11-09T04:49:12.125Z,5.32
2022-11-09T04:51:41.940Z,5.20
2022-11-09T04:56:38.858Z,6.03
2022-11-09T04:59:07.397Z,5.07
2022-11-09T05:01:36.154Z,6.78
2022-11-09T05:04:04.924Z,5.55
2022-11-09T05:06:33.453Z,5.40
2022-11-09T05:09:05.399Z,4.60
2022-11-09T05:11:35.074Z,9.63
2022-11-09T05:14:04.676Z,7.00
2022-11-09T05:16:33.384Z,6.82
2022-11-09T05:19:01.867Z,8.02
2022-11-09T05:21:33.823Z,7.82
2022-11-09T05:24:03.074Z,9.88
2022-11-09T05:26:33.250Z,6.75
2022-11-09T05:29:03.569Z,5.55
2022-11-09T05:31:32.500Z,5.70
2022-11-09T05:34:01.788Z,7.07
2022-11-09T05:36:31.594Z,7.28
2022-11-09T05:43:58.190Z,5.55
2022-11-09T05:46:26.985Z,6.25
2022-11-09T05:48:55.485Z,7.07
2022-11-09T05:51:24.023Z,6.88
2022-11-09T05:53:52.490Z,6.35
2022-11-09T05:56:20.968Z,6.60
2022-11-09T05:58:50.789Z,6.63
2022-11-09T06:01:19.699Z,6.13
2022-11-09T06:03:48.350Z,8.82
2022-11-09T06:06:17.688Z,6.38
2022-11-09T06:08:46.280Z,6.38
2022-11-09T06:11:21.915Z,6.68
2022-11-09T06:13:54.086Z,5.75
2022-11-09T06:16:22.792Z,4.90
2022-11-09T06:18:51.204Z,8.45
2022-11-09T06:21:23.444Z,7.22
2022-11-09T06:23:51.857Z,7.28
2022-11-09T06:26:20.277Z,6.60
2022-11-09T06:28:48.672Z,7.30
2022-11-09T06:31:20.501Z,7.63
2022-11-09T06:33:48.971Z,8.13
2022-11-09T06:36:17.396Z,11.98
2022-11-09T06:38:45.814Z,14.43
2022-11-09T06:41:14.254Z,12.88
2022-11-09T06:43:43.228Z,7.75
2022-11-09T06:46:12.602Z,7.53
2022-11-09T06:48:42.484Z,8.40
2022-11-09T06:56:10.092Z,6.38
2022-11-09T06:58:38.584Z,6.32
2022-11-09T07:01:11.415Z,5.60
2022-11-09T07:03:41.924Z,4.05
2022-11-09T07:06:12.344Z,4.78
2022-11-09T07:08:41.525Z,6.22
2022-11-09T07:11:11.780Z,3.78
2022-11-09T07:13:40.779Z,5.00
2022-11-09T07:16:11.927Z,6.70
2022-11-09T07:18:41.810Z,3.85
2022-11-09T07:23:43.647Z,6.13
2022-11-09T07:26:12.231Z,4.07
2022-11-09T07:28:41.425Z,5.82
2022-11-09T07:31:10.825Z,3.55
2022-11-09T07:33:39.240Z,3.75
2022-11-09T07:36:10.399Z,4.60
2022-11-09T07:38:38.840Z,3.83
2022-11-09T07:41:07.364Z,5.20
2022-11-09T07:43:35.790Z,3.30
2022-11-09T07:46:06.232Z,4.25
2022-11-09T07:48:34.644Z,6.10
2022-11-09T07:51:03.179Z,5.50
2022-11-09T07:53:33.307Z,5.70
2022-11-09T07:56:03.336Z,8.43
2022-11-09T07:58:32.325Z,11.73
2022-11-09T08:01:01.364Z,14.15
2022-11-09T08:03:29.801Z,13.93
2022-11-09T08:05:58.876Z,12.85
2022-11-09T08:08:27.367Z,14.30
2022-11-09T08:10:59.452Z,12.93
2022-11-09T08:13:27.941Z,13.70
2022-11-09T08:15:56.430Z,16.13
2022-11-09T08:18:24.924Z,17.10
2022-11-09T08:20:53.479Z,11.48
2022-11-09T08:23:22.230Z,10.43
2022-11-09T08:25:51.146Z,9.00
2022-11-09T08:28:21.213Z,9.73
2022-11-09T08:30:57.567Z,9.20
2022-11-09T08:33:27.392Z,6.72
2022-11-09T08:35:56.137Z,10.48
2022-11-09T08:38:24.839Z,8.35
2022-11-09T08:40:58.556Z,11.15
2022-11-09T08:43:28.466Z,7.53
2022-11-09T08:48:25.225Z,5.78
2022-11-09T08:50:54.655Z,6.07
2022-11-09T08:53:23.936Z,4.65
2022-11-09T08:55:52.836Z,3.97
2022-11-09T08:58:22.461Z,5.93
2022-11-09T09:03:20.924Z,6.13
2022-11-09T09:05:49.405Z,5.93
2022-11-09T09:08:21.967Z,3.33
2022-11-09T09:10:50.744Z,4.47
2022-11-09T09:13:22.508Z,5.32
2022-11-09T09:15:54.707Z,6.28
2022-11-09T09:18:24.534Z,6.90
2022-11-09T09:20:52.995Z,6.35
2022-11-09T09:23:21.980Z,7.40
2022-11-09T09:25:50.369Z,6.53
2022-11-09T09:28:19.116Z,7.28
2022-11-09T09:30:47.775Z,5.90
2022-11-09T09:33:17.569Z,6.25
2022-11-09T09:38:14.347Z,6.28
2022-11-09T09:40:55.746Z,4.43
2022-11-09T09:43:29.628Z,1.98
2022-11-09T09:46:01.745Z,0.70
2022-11-09T09:48:39.206Z,2.90
2022-11-09T09:51:14.573Z,1.63
2022-11-09T09:53:47.736Z,5.00
2022-11-09T09:56:21.780Z,3.60
2022-11-09T09:58:56.831Z,3.10
2022-11-09T10:01:35.601Z,3.63
2022-11-09T10:04:18.009Z,3.33
2022-11-09T10:09:42.894Z,4.22
2022-11-09T10:12:22.455Z,3.30
2022-11-09T10:15:15.495Z,5.03
2022-11-09T10:17:57.087Z,2.08
2022-11-09T10:20:40.914Z,1.42
2022-11-09T10:23:26.233Z,1.60
2022-11-09T10:26:05.262Z,1.27
2022-11-09T10:29:13.902Z,3.05
2022-11-09T10:31:33.548Z,0.50
2022-11-09T10:34:13.636Z,1.00
2022-11-09T10:36:48.909Z,1.20
2022-11-09T10:39:18.292Z,0.50
2022-11-09T10:42:05.825Z,0.30
2022-11-09T10:44:53.081Z,0.63
2022-11-09T10:47:48.932Z,0.93
2022-11-09T10:50:39.234Z,1.02
2022-11-09T10:53:29.321Z,1.70
2022-11-09T10:56:21.259Z,0.50
2022-11-09T10:59:41.600Z,1.00
2022-11-09T11:02:47.482Z,0.90
2022-11-09T11:05:34.939Z,0.30
2022-11-09T11:08:25.494Z,1.50
2022-11-09T11:11:39.105Z,0.73
2022-11-09T11:14:31.503Z,0.50
2022-11-09T11:17:23.655Z,0.95
2022-11-09T11:20:32.083Z,1.30
2022-11-09T11:23:21.580Z,0.60
2022-11-09T11:26:38.873Z,1.67
2022-11-09T11:29:35.105Z,1.60
2022-11-09T11:32:24.657Z,1.02
2022-11-09T11:35:17.363Z,0.82
2022-11-09T11:38:19.333Z,1.20
2022-11-09T11:41:29.017Z,2.33
2022-11-09T11:44:28.271Z,1.02
2022-11-09T11:47:22.459Z,1.27
2022-11-09T11:50:29.997Z,0.82
2022-11-09T11:53:33.032Z,0.65
2022-11-09T11:56:25.570Z,1.27
2022-11-09T11:59:39.922Z,1.05
2022-11-09T12:02:58.518Z,0.52
2022-11-09T12:06:08.479Z,1.00
2022-11-09T12:09:07.438Z,0.70
2022-11-09T12:12:08.509Z,0.40
2022-11-09T12:15:07.952Z,0.88
2022-11-09T12:18:05.850Z,1.05
2022-11-09T12:21:01.616Z,0.82
2022-11-09T12:24:15.761Z,0.60
2022-11-09T12:27:31.976Z,1.50
2022-11-09T12:30:24.113Z,1.33
2022-11-09T12:33:17.190Z,0.68
2022-11-09T12:36:10.069Z,0.98
2022-11-09T12:39:02.995Z,1.90
2022-11-09T12:41:52.081Z,2.08
2022-11-09T12:44:44.702Z,1.38
2022-11-09T12:47:45.476Z,0.75
2022-11-09T12:50:33.245Z,1.45
2022-11-09T12:53:22.855Z,1.02
2022-11-09T12:56:18.064Z,2.10
2022-11-09T12:59:35.864Z,1.10
2022-11-09T13:02:28.717Z,2.00
2022-11-09T13:05:32.431Z,0.68
2022-11-09T13:08:26.089Z,1.52
2022-11-09T13:11:22.306Z,1.13
2022-11-09T13:14:35.502Z,1.42
2022-11-09T13:18:02.333Z,1.58
2022-11-09T13:20:56.945Z,2.22
2022-11-09T13:24:03.726Z,1.77
2022-11-09T13:26:59.781Z,2.60
2022-11-09T13:29:56.451Z,1.98
2022-11-09T13:33:23.731Z,2.25
2022-11-09T13:36:22.102Z,1.85
2022-11-09T13:39:32.514Z,3.35
2022-11-09T13:42:27.740Z,2.08
2022-11-09T13:45:27.885Z,3.00
2022-11-09T13:48:42.554Z,2.42
2022-11-09T13:51:46.347Z,2.50
2022-11-09T13:54:34.839Z,2.97
2022-11-09T13:57:24.315Z,3.13
2022-11-09T14:00:23.135Z,5.18
2022-11-09T14:03:20.451Z,6.07
2022-11-09T14:06:07.870Z,5.70
2022-11-09T14:08:57.101Z,5.47
2022-11-09T14:12:05.612Z,3.72
2022-11-09T14:15:07.153Z,4.63
2022-11-09T14:18:07.139Z,2.15
2022-11-09T14:21:01.001Z,3.00
2022-11-09T14:23:49.367Z,3.05
2022-11-09T14:26:37.925Z,3.22
2022-11-09T14:32:35.614Z,2.35
2022-11-09T14:35:26.109Z,2.88
2022-11-09T14:38:20.244Z,4.10
2022-11-09T14:41:20.230Z,2.85
2022-11-09T14:44:17.061Z,3.25
2022-11-09T14:47:06.183Z,3.50
2022-11-09T14:49:54.088Z,11.05
2022-11-09T14:52:41.644Z,4.63
2022-11-09T14:55:29.668Z,3.47
2022-11-09T14:58:18.080Z,5.90
2022-11-09T15:01:23.864Z,5.78
2022-11-09T15:04:14.459Z,6.10
2022-11-09T15:07:04.648Z,4.47
2022-11-09T15:09:55.975Z,4.90
2022-11-09T15:12:49.168Z,4.15
2022-11-09T15:15:38.355Z,4.18
2022-11-09T15:18:33.875Z,5.97
2022-11-09T15:21:35.439Z,5.97
2022-11-09T15:24:25.060Z,4.97
2022-11-09T15:27:32.534Z,5.82
2022-11-09T15:30:30.467Z,4.78
2022-11-09T15:33:26.747Z,3.88
2022-11-09T15:36:26.343Z,5.00
2022-11-09T15:39:16.725Z,5.30
2022-11-09T15:42:03.835Z,3.03
2022-11-09T15:44:55.248Z,3.50
2022-11-09T15:47:42.215Z,5.53
2022-11-09T15:50:30.542Z,3.25
2022-11-09T15:53:17.700Z,3.85
2022-11-09T15:56:05.021Z,2.40
2022-11-09T15:58:53.420Z,4.18
2022-11-09T16:01:40.976Z,1.75
2022-11-09T16:04:27.904Z,2.55
2022-11-09T16:07:17.460Z,2.20
2022-11-09T16:10:05.581Z,1.88
2022-11-09T16:12:52.984Z,2.40
2022-11-09T16:15:40.599Z,2.53
2022-11-09T16:18:27.863Z,3.60
2022-11-09T16:21:17.390Z,2.55
2022-11-09T16:24:05.942Z,1.90
2022-11-09T16:26:54.931Z,2.28
2022-11-09T16:29:42.163Z,3.85
2022-11-09T16:32:29.083Z,2.30
2022-11-09T16:35:26.559Z,12.13
2022-11-09T16:38:15.563Z,3.80
2022-11-09T16:41:05.322Z,3.50
2022-11-09T16:43:54.168Z,5.43
2022-11-09T16:46:43.738Z,3.33
2022-11-09T16:49:31.838Z,3.30
2022-11-09T16:52:18.901Z,4.53
2022-11-09T16:55:07.721Z,3.05
2022-11-09T16:57:56.369Z,3.67
2022-11-09T17:01:09.562Z,3.60
2022-11-09T17:03:53.355Z,4.47
2022-11-09T17:06:40.231Z,4.72
2022-11-09T17:09:27.748Z,4.60
2022-11-09T17:12:15.191Z,10.57
2022-11-09T17:15:03.762Z,7.47
2022-11-09T17:17:50.844Z,8.05
2022-11-09T17:20:43.418Z,8.57
2022-11-09T17:23:31.431Z,11.75
2022-11-09T17:26:19.664Z,6.35
2022-11-09T17:31:55.157Z,5.03
2022-11-09T17:34:42.172Z,4.50
2022-11-09T17:37:29.341Z,4.88
2022-11-09T17:40:19.739Z,4.28
2022-11-09T17:43:06.827Z,2.95
2022-11-09T17:45:54.057Z,4.28
2022-11-09T17:48:43.949Z,6.05
2022-11-09T17:51:31.252Z,4.10
2022-11-09T17:54:18.530Z,4.82
2022-11-09T17:57:05.584Z,4.05
2022-11-09T17:59:52.373Z,6.97
2022-11-09T18:02:39.344Z,4.85
2022-11-09T18:05:27.890Z,6.35
2022-11-09T18:08:16.147Z,5.03
2022-11-09T18:11:03.270Z,12.63
2022-11-09T18:13:50.366Z,5.65
2022-11-09T18:16:37.908Z,4.50
2022-11-09T18:19:24.867Z,2.50
2022-11-09T18:22:13.328Z,3.10
2022-11-09T18:25:00.508Z,3.08
2022-11-09T18:27:48.389Z,2.10
2022-11-09T18:30:41.448Z,2.47
2022-11-09T18:33:29.211Z,1.88
2022-11-09T18:36:18.463Z,4.22
2022-11-09T18:39:07.013Z,3.75
2022-11-09T18:41:54.519Z,3.88
2022-11-09T18:44:41.637Z,2.58
2022-11-09T18:47:28.741Z,3.33
2022-11-09T18:50:15.778Z,2.70
2022-11-09T18:53:02.776Z,3.38
2022-11-09T18:55:51.326Z,3.88
2022-11-09T18:58:40.420Z,3.15
2022-11-09T19:01:28.500Z,3.30
2022-11-09T19:04:16.687Z,2.55
2022-11-09T19:07:03.678Z,2.15
2022-11-09T19:09:55.479Z,2.03
2022-11-09T19:12:44.997Z,2.67
2022-11-09T19:15:34.953Z,1.90
2022-11-09T19:18:22.333Z,2.80
2022-11-09T19:21:25.840Z,5.05
2022-11-09T19:24:14.791Z,3.88
2022-11-09T19:27:01.733Z,2.25
2022-11-09T19:29:49.978Z,3.42
2022-11-09T19:35:27.323Z,3.15
2022-11-09T19:38:16.737Z,1.98
2022-11-09T19:41:04.761Z,3.85
2022-11-09T19:43:54.304Z,2.78
2022-11-09T19:46:42.623Z,2.45
2022-11-09T19:49:29.853Z,2.55
2022-11-09T19:52:16.858Z,3.13
2022-11-09T19:55:04.323Z,2.33
2022-11-09T19:57:51.525Z,1.63
2022-11-09T20:00:38.560Z,2.58
2022-11-09T20:03:27.043Z,2.38
2022-11-09T20:09:01.332Z,2.08
2022-11-09T20:12:06.444Z,1.42
2022-11-09T20:14:53.646Z,2.08
2022-11-09T20:17:41.078Z,2.95
2022-11-09T20:20:29.338Z,1.40
2022-11-09T20:23:21.419Z,2.10
2022-11-09T20:26:12.277Z,4.20
2022-11-09T20:28:59.299Z,4.03
2022-11-09T20:31:46.526Z,3.85
2022-11-09T20:34:35.417Z,3.63
2022-11-09T20:37:23.638Z,5.78
2022-11-09T20:40:11.853Z,4.40
2022-11-09T20:45:49.059Z,14.82
2022-11-09T20:48:53.622Z,13.23
2022-11-09T20:51:41.787Z,10.23
2022-11-09T20:54:30.101Z,13.60
2022-11-09T20:57:17.207Z,9.05
2022-11-09T21:00:05.094Z,10.15
2022-11-09T21:02:52.218Z,8.50
2022-11-09T21:05:39.327Z,6.55
2022-11-09T21:08:26.841Z,4.05
2022-11-09T21:11:15.065Z,2.80
2022-11-09T21:14:03.123Z,2.67
2022-11-09T21:16:50.311Z,2.00
2022-11-09T21:19:37.528Z,1.73
2022-11-09T21:22:45.044Z,3.00
2022-11-09T21:25:50.889Z,4.53
2022-11-09T21:28:57.484Z,2.72
2022-11-09T21:31:44.894Z,2.10
2022-11-09T21:34:36.466Z,2.80
2022-11-09T21:37:24.381Z,2.22
2022-11-09T21:40:11.872Z,3.35
2022-11-09T21:42:59.169Z,3.08
2022-11-09T21:45:53.841Z,1.50
2022-11-09T21:48:40.897Z,2.00
2022-11-09T21:51:28.099Z,1.52
2022-11-09T21:54:15.212Z,1.02
2022-11-09T21:57:02.456Z,1.92
2022-11-09T21:59:49.370Z,1.75
2022-11-09T22:02:38.808Z,1.40
2022-11-09T22:05:25.702Z,2.80
2022-11-09T22:08:12.696Z,1.33
2022-11-09T22:11:06.961Z,2.25
2022-11-09T22:14:11.387Z,3.35
2022-11-09T22:16:58.672Z,3.10
2022-11-09T22:20:04.486Z,3.55
2022-11-09T22:22:51.708Z,3.53
2022-11-09T22:25:39.917Z,5.10
2022-11-09T22:28:28.416Z,3.90
2022-11-09T22:31:15.348Z,3.92
2022-11-09T22:34:02.298Z,2.60
2022-11-09T22:36:51.727Z,3.75
2022-11-09T22:39:41.787Z,4.13
2022-11-09T22:42:33.150Z,2.92
2022-11-09T22:45:20.105Z,1.67
2022-11-09T22:48:07.385Z,2.35
2022-11-09T22:50:54.365Z,1.88
2022-11-09T22:53:42.992Z,2.35
2022-11-09T22:56:30.069Z,2.40
2022-11-09T22:59:16.968Z,2.60
2022-11-09T23:02:04.119Z,3.53
2022-11-09T23:04:50.995Z,3.13
2022-11-09T23:07:37.867Z,1.80
2022-11-09T23:10:26.089Z,1.80
2022-11-09T23:13:13.044Z,2.70
2022-11-09T23:16:01.838Z,1.20
2022-11-09T23:18:53.872Z,1.00
2022-11-09T23:21:40.704Z,2.42
2022-11-09T23:24:44.859Z,1.00
2022-11-09T23:27:33.628Z,0.98
2022-11-09T23:30:21.425Z,0.57
2022-11-09T23:33:08.879Z,1.17
2022-11-09T23:35:56.530Z,0.98
2022-11-09T23:38:43.817Z,1.60
2022-11-09T23:41:30.746Z,1.40
2022-11-09T23:44:18.977Z,0.30
2022-11-09T23:47:06.041Z,1.23
2022-11-09T23:49:52.945Z,0.65
2022-11-09T23:52:39.903Z,0.52
2022-11-09T23:55:27.739Z,1.25
2022-11-09T23:58:15.004Z,0.73
